createdAt,value
2024-05-09T00:00:41.977Z,62.00
2024-05-09T00:03:10.275Z,62.00
2024-05-09T00:05:40.237Z,62.00
2024-05-09T00:08:09.648Z,61.90
2024-05-09T00:10:38.869Z,61.70
2024-05-09T00:13:07.939Z,61.60
2024-05-09T00:15:36.156Z,61.70
2024-05-09T00:18:06.980Z,61.80
2024-05-09T00:20:38.968Z,61.80
2024-05-09T00:23:09.472Z,61.60
2024-05-09T00:25:36.875Z,61.60
2024-05-09T00:28:03.941Z,61.70
2024-05-09T00:43:08.901Z,61.60
2024-05-09T01:05:34.809Z,61.60
2024-05-09T01:08:02.510Z,60.60
2024-05-09T01:10:34.428Z,60.80
2024-05-09T01:13:03.783Z,60.80
2024-05-09T01:15:33.412Z,60.80
2024-05-09T01:18:18.533Z,60.60
2024-05-09T01:20:45.803Z,60.70
2024-05-09T01:23:16.219Z,60.70
2024-05-09T01:38:12.832Z,60.70
2024-05-09T01:40:40.490Z,60.60
2024-05-09T01:43:09.192Z,60.70
2024-05-09T01:45:37.235Z,60.60
2024-05-09T01:48:04.937Z,60.20
2024-05-09T01:50:38.376Z,60.60
2024-05-09T02:05:40.575Z,60.40
2024-05-09T02:08:12.093Z,60.10
2024-05-09T02:10:38.983Z,60.10
2024-05-09T02:13:07.842Z,60.30
2024-05-09T02:15:34.775Z,60.40
2024-05-09T02:20:35.752Z,60.30
2024-05-09T02:23:06.069Z,60.50
2024-05-09T02:25:33.589Z,60.40
2024-05-09T02:28:00.514Z,60.50
2024-05-09T02:30:37.889Z,60.70
2024-05-09T02:33:08.721Z,60.90
2024-05-09T02:35:36.499Z,60.80
2024-05-09T02:38:03.715Z,61.00
2024-05-09T02:40:36.774Z,60.90
2024-05-09T02:43:08.289Z,60.70
2024-05-09T02:45:36.086Z,60.50
2024-05-09T02:48:03.330Z,60.80
2024-05-09T02:50:37.340Z,60.80
2024-05-09T02:53:11.101Z,60.70
2024-05-09T02:55:39.000Z,60.80
2024-05-09T02:58:09.653Z,60.70
2024-05-09T03:00:40.414Z,60.80
2024-05-09T03:03:14.804Z,60.50
2024-05-09T03:05:46.463Z,60.40
2024-05-09T03:08:13.924Z,60.60
2024-05-09T03:10:41.970Z,60.30
2024-05-09T03:13:12.803Z,60.10
2024-05-09T03:15:40.931Z,60.20
2024-05-09T03:18:08.560Z,60.00
2024-05-09T03:30:39.090Z,60.10
2024-05-09T03:33:15.702Z,59.90
2024-05-09T03:35:44.232Z,59.80
2024-05-09T03:38:11.385Z,59.70
2024-05-09T03:40:48.748Z,59.50
2024-05-09T03:43:16.520Z,59.40
2024-05-09T03:48:11.689Z,59.30
2024-05-09T03:50:39.068Z,59.50
2024-05-09T03:53:10.469Z,59.60
2024-05-09T03:55:37.418Z,59.70
2024-05-09T03:58:04.624Z,59.90
2024-05-09T04:00:37.640Z,59.80
2024-05-09T04:03:09.670Z,59.90
2024-05-09T04:23:12.266Z,60.10
2024-05-09T04:55:38.085Z,59.90
2024-05-09T04:58:10.203Z,61.10
2024-05-09T05:00:39.120Z,61.00
2024-05-09T05:03:10.815Z,61.10
2024-05-09T05:05:43.547Z,61.60
2024-05-09T05:08:19.165Z,61.70
2024-05-09T05:10:47.504Z,61.90
2024-05-09T05:13:18.036Z,62.00
2024-05-09T05:15:47.782Z,62.10
2024-05-09T05:18:15.446Z,62.40
2024-05-09T05:20:42.739Z,62.70
2024-05-09T05:23:15.469Z,62.80
2024-05-09T05:25:42.865Z,63.30
2024-05-09T05:28:11.758Z,63.60
2024-05-09T05:30:40.881Z,63.80
2024-05-09T05:33:10.933Z,64.00
2024-05-09T05:35:37.983Z,64.30
2024-05-09T05:38:06.882Z,64.60
2024-05-09T05:40:37.177Z,64.90
2024-05-09T05:43:06.272Z,65.30
2024-05-09T05:45:33.189Z,65.80
2024-05-09T05:48:02.897Z,66.00
2024-05-09T05:50:35.878Z,66.10
2024-05-09T05:53:07.705Z,66.30
2024-05-09T05:55:36.218Z,66.50
2024-05-09T05:58:03.461Z,66.80
2024-05-09T06:00:37.838Z,67.10
2024-05-09T06:03:07.506Z,67.50
2024-05-09T06:05:35.787Z,67.90
2024-05-09T06:08:04.039Z,68.20
2024-05-09T06:10:37.947Z,68.50
2024-05-09T06:13:07.589Z,68.90
2024-05-09T06:15:35.444Z,69.30
2024-05-09T06:18:06.359Z,69.80
2024-05-09T06:20:36.575Z,70.00
2024-05-09T06:23:09.640Z,70.20
2024-05-09T06:25:38.448Z,70.60
2024-05-09T06:28:05.930Z,70.70
2024-05-09T06:33:02.983Z,70.90
2024-05-09T06:35:30.229Z,71.20
2024-05-09T06:37:58.270Z,72.00
2024-05-09T08:13:14.515Z,66.10
2024-05-09T08:15:41.561Z,65.20
2024-05-09T08:18:12.027Z,65.00
2024-05-09T08:20:40.303Z,64.20
2024-05-09T08:23:07.488Z,65.00
2024-05-09T08:30:34.126Z,64.50
2024-05-09T08:33:07.889Z,63.50
2024-05-09T08:35:37.113Z,62.00
2024-05-09T08:38:05.254Z,61.10
2024-05-09T08:40:35.854Z,60.50
2024-05-09T08:43:09.235Z,60.00
2024-05-09T08:45:38.888Z,61.30
2024-05-09T08:48:08.858Z,60.80
2024-05-09T08:50:40.308Z,60.80
2024-05-09T08:58:14.260Z,61.30
2024-05-09T09:00:44.504Z,61.10
2024-05-09T09:03:16.926Z,60.80
2024-05-09T09:05:53.158Z,60.50
2024-05-09T09:25:42.569Z,61.80
2024-05-09T09:28:09.893Z,59.00
2024-05-09T09:38:10.076Z,58.20
2024-05-09T09:40:45.090Z,59.40
2024-05-09T09:43:20.009Z,58.50
2024-05-09T09:45:51.556Z,59.10
2024-05-09T09:48:21.374Z,59.60
2024-05-09T09:50:51.135Z,58.40
2024-05-09T09:53:19.003Z,58.60
2024-05-09T09:55:47.027Z,58.60
2024-05-09T09:58:16.810Z,57.60
2024-05-09T10:00:44.855Z,57.20
2024-05-09T10:03:11.951Z,58.00
2024-05-09T10:05:42.080Z,57.50
2024-05-09T10:10:39.987Z,56.90
2024-05-09T10:13:08.483Z,56.10
2024-05-09T10:15:45.806Z,56.70
2024-05-09T10:18:13.461Z,59.50
2024-05-09T10:20:46.840Z,58.00
2024-05-09T11:20:58.019Z,58.70
2024-05-09T11:23:30.191Z,56.40
2024-05-09T11:25:58.542Z,56.90
2024-05-09T11:28:29.031Z,55.50
2024-05-09T11:31:10.056Z,55.80
2024-05-09T11:33:40.035Z,56.20
2024-05-09T11:36:08.698Z,55.70
2024-05-09T11:38:36.749Z,55.90
2024-05-09T11:41:04.972Z,56.70
2024-05-09T11:43:32.196Z,55.90
2024-05-09T11:45:59.525Z,55.90
2024-05-09T11:48:27.039Z,57.10
2024-05-09T11:50:55.131Z,56.00
2024-05-09T11:53:22.354Z,56.30
2024-05-09T11:55:49.193Z,56.50
2024-05-09T11:58:18.064Z,56.40
2024-05-09T12:00:46.378Z,57.10
2024-05-09T12:28:05.945Z,55.60
2024-05-09T12:30:37.714Z,55.40
2024-05-09T12:33:11.642Z,55.30
2024-05-09T12:35:39.804Z,55.20
2024-05-09T12:38:06.689Z,55.70
2024-05-09T12:40:37.740Z,56.20
2024-05-09T12:43:10.010Z,54.60
2024-05-09T12:45:38.468Z,55.10
2024-05-09T12:48:12.189Z,56.30
2024-05-09T12:50:40.499Z,55.80
2024-05-09T12:53:07.406Z,55.00
2024-05-09T12:55:44.200Z,54.90
2024-05-09T12:58:22.483Z,55.50
2024-05-09T14:50:38.540Z,55.80
2024-05-09T14:53:13.398Z,54.90
2024-05-09T14:55:43.065Z,53.30
2024-05-09T14:58:11.996Z,53.70
2024-05-09T15:00:45.995Z,52.50
2024-05-09T15:03:20.760Z,52.00
2024-05-09T15:05:48.742Z,53.10
2024-05-09T15:08:17.584Z,52.90
2024-05-09T15:10:44.851Z,51.80
2024-05-09T15:13:13.469Z,51.20
2024-05-09T15:15:42.768Z,51.90
2024-05-09T15:18:09.962Z,52.20
2024-05-09T15:20:37.897Z,52.40
2024-05-09T15:23:06.934Z,51.80
2024-05-09T15:25:35.214Z,52.50
2024-05-09T15:28:02.610Z,53.10
2024-05-09T15:30:32.401Z,52.60
2024-05-09T15:33:03.386Z,52.70
2024-05-09T19:55:38.737Z,51.70
2024-05-09T19:58:07.312Z,59.90
2024-05-09T20:00:38.163Z,59.60
2024-05-09T20:03:07.727Z,59.60
2024-05-09T20:05:36.984Z,59.70
2024-05-09T20:08:04.706Z,59.80
2024-05-09T20:10:35.096Z,60.60
2024-05-09T20:13:04.581Z,59.70
2024-05-09T20:15:33.688Z,59.90
2024-05-09T20:18:00.741Z,60.10
2024-05-09T20:20:35.950Z,60.00
2024-05-09T20:25:35.274Z,59.80
2024-05-09T20:28:02.359Z,59.90
2024-05-09T20:30:32.805Z,59.90
2024-05-09T20:33:05.534Z,60.00
2024-05-09T20:35:33.783Z,60.00
2024-05-09T20:38:01.955Z,60.00
2024-05-09T20:40:34.040Z,60.10
2024-05-09T20:43:05.341Z,60.20
2024-05-09T20:45:32.537Z,60.20
2024-05-09T20:48:00.639Z,60.20
2024-05-09T20:50:35.958Z,60.30
2024-05-09T20:53:08.164Z,60.20
2024-05-09T20:55:35.039Z,60.40
2024-05-09T20:58:01.954Z,60.40
2024-05-09T21:00:35.526Z,60.40
2024-05-09T21:03:08.055Z,60.40
2024-05-09T21:05:36.209Z,60.30
2024-05-09T21:08:03.220Z,60.40
2024-05-09T21:10:33.043Z,60.60
2024-05-09T21:13:02.405Z,60.60
2024-05-09T21:17:57.376Z,60.70
2024-05-09T21:20:30.933Z,60.80
2024-05-09T21:22:59.737Z,60.90
2024-05-09T21:25:26.586Z,60.90
2024-05-09T21:27:53.569Z,60.80
2024-05-09T21:30:31.582Z,60.90
2024-05-09T21:33:22.873Z,61.10
2024-05-09T21:35:49.801Z,61.30
2024-05-09T22:13:00.016Z,61.20
2024-05-09T22:15:27.182Z,61.80
2024-05-09T22:17:55.204Z,61.90
2024-05-09T22:20:28.908Z,61.90
2024-05-09T22:23:02.941Z,61.80
2024-05-09T22:25:31.161Z,61.90
2024-05-09T22:27:58.959Z,61.90
2024-05-09T22:30:34.320Z,62.00
2024-05-09T22:33:05.636Z,61.80
2024-05-09T22:35:32.715Z,61.80
2024-05-09T23:00:19.118Z,62.00
2024-05-09T23:02:48.919Z,62.10
2024-05-09T23:05:15.870Z,62.10
2024-05-09T23:07:42.817Z,62.10
2024-05-09T23:10:13.454Z,62.10
2024-05-09T23:12:47.532Z,62.10
2024-05-09T23:15:14.361Z,62.00
2024-05-09T23:17:41.443Z,61.90
2024-05-09T23:22:38.870Z,61.90
2024-05-09T23:25:06.851Z,62.10
2024-05-09T23:27:34.760Z,62.10
2024-05-09T23:30:01.636Z,62.20
2024-05-09T23:32:28.558Z,62.30
2024-05-09T23:34:55.469Z,62.20
2024-05-09T23:37:22.481Z,62.20
2024-05-09T23:39:49.391Z,62.10
2024-05-09T23:42:16.358Z,62.10
2024-05-09T23:44:43.672Z,62.20
2024-05-09T23:54:32.620Z,62.20
